Time;durP1;ratioP1;P1;durP2;ratioP2;P2;SDS_P1;SDS_P2;PMS_P1;PMS_P2;Temp;Humidity;BMP_temperature;BMP_pressure;BME280_temperature;BME280_humidity;BME280_pressure;Samples;Min_cycle;Max_cycle;Signal;HPM_P1;HPM_P2
2023/04/12 00:01:28;;;;;;;8.03;4.93;;;4.30;1.00;;;;;;5084373;28;20191;-74
2023/04/12 00:03:54;;;;;;;12.23;6.10;;;4.40;1.00;;;;;;5072046;28;20223;-74
2023/04/12 00:06:26;;;;;;;12.00;5.40;;;4.40;1.00;;;;;;5089549;28;20205;-75
2023/04/12 00:08:52;;;;;;;18.33;5.63;;;4.50;1.00;;;;;;5086338;28;20618;-73
2023/04/12 00:11:17;;;;;;;8.90;4.67;;;4.50;1.00;;;;;;5071498;28;20436;-75
2023/04/12 00:13:43;;;;;;;9.20;5.20;;;4.40;1.00;;;;;;5074210;28;20467;-75
2023/04/12 00:16:09;;;;;;;12.93;6.20;;;4.50;1.00;;;;;;5088948;28;20211;-75
2023/04/12 00:18:35;;;;;;;16.90;5.03;;;4.40;1.00;;;;;;5089418;28;20179;-73
2023/04/12 00:21:00;;;;;;;20.67;5.10;;;4.50;1.00;;;;;;5056926;28;20415;-75
2023/04/12 00:23:26;;;;;;;17.43;6.63;;;4.50;1.00;;;;;;5075030;28;20202;-74
2023/04/12 00:25:52;;;;;;;10.60;4.77;;;4.40;1.00;;;;;;5075154;28;20166;-75
2023/04/12 00:28:18;;;;;;;18.07;6.43;;;4.40;1.00;;;;;;5075556;28;21258;-73
2023/04/12 00:30:44;;;;;;;10.37;5.17;;;4.40;1.00;;;;;;5057966;28;20187;-74
2023/04/12 00:33:10;;;;;;;9.10;5.83;;;4.40;1.00;;;;;;5074722;28;20456;-74
2023/04/12 00:35:36;;;;;;;11.70;5.23;;;4.40;1.00;;;;;;5095835;28;20395;-75
2023/04/12 00:38:02;;;;;;;17.43;6.73;;;4.40;1.00;;;;;;5066434;28;20428;-75
2023/04/12 00:40:28;;;;;;;15.60;5.00;;;4.30;1.00;;;;;;5092114;28;20161;-74
2023/04/12 00:42:54;;;;;;;11.93;5.83;;;4.30;1.00;;;;;;5095066;28;20550;-75
2023/04/12 00:45:20;;;;;;;10.40;5.47;;;4.30;1.00;;;;;;5083691;28;20186;-75
2023/04/12 00:47:45;;;;;;;11.30;6.57;;;4.30;1.00;;;;;;5075451;28;20170;-73
2023/04/12 00:50:11;;;;;;;10.43;6.07;;;4.40;1.00;;;;;;5082113;28;20450;-73
2023/04/12 00:52:38;;;;;;;15.00;6.33;;;4.40;1.00;;;;;;5057377;28;20698;-75
2023/04/12 00:55:06;;;;;;;14.00;5.67;;;4.40;1.00;;;;;;5062721;28;20229;-73
2023/04/12 00:57:38;;;;;;;17.47;5.40;;;4.30;1.00;;;;;;5095463;28;20465;-75
2023/04/12 01:00:12;;;;;;;9.67;6.20;;;4.30;1.00;;;;;;5089170;28;20522;-74
2023/04/12 01:02:46;;;;;;;8.90;5.67;;;4.30;1.00;;;;;;5074293;28;20445;-75
2023/04/12 01:05:20;;;;;;;7.80;5.47;;;4.20;1.00;;;;;;5074565;28;20436;-73
2023/04/12 01:07:53;;;;;;;8.57;5.97;;;4.20;1.00;;;;;;5075025;28;20429;-73
2023/04/12 01:10:46;;;;;;;13.17;6.17;;;4.20;1.00;;;;;;5071863;28;20526;-75
2023/04/12 01:13:29;;;;;;;10.67;5.90;;;4.20;1.00;;;;;;5046358;28;20467;-73
2023/04/12 01:16:04;;;;;;;17.27;6.50;;;4.20;1.00;;;;;;5075001;28;20412;-73
2023/04/12 01:18:39;;;;;;;16.23;7.40;;;4.20;1.00;;;;;;5074073;28;20458;-74
2023/04/12 01:21:09;;;;;;;15.43;7.77;;;4.20;1.00;;;;;;5081116;28;20420;-73
2023/04/12 01:24:00;;;;;;;18.80;7.63;;;4.20;1.00;;;;;;5085792;28;20537;-74
2023/04/12 01:26:43;;;;;;;12.40;5.47;;;4.20;1.00;;;;;;5074698;28;20904;-72
2023/04/12 01:29:15;;;;;;;12.73;7.00;;;4.20;1.00;;;;;;5075163;28;20422;-74
2023/04/12 01:32:00;;;;;;;11.27;6.30;;;4.30;1.00;;;;;;5073637;28;20886;-75
2023/04/12 01:34:30;;;;;;;7.93;7.13;;;4.20;1.00;;;;;;5073773;28;20555;-73
2023/04/12 01:36:58;;;;;;;12.17;7.87;;;4.20;1.00;;;;;;5073875;28;20419;-75
2023/04/12 01:39:24;;;;;;;10.30;6.83;;;4.20;1.00;;;;;;5059866;28;20523;-74
2023/04/12 01:41:50;;;;;;;19.43;6.70;;;4.20;1.00;;;;;;5093747;28;20419;-75
2023/04/12 01:44:17;;;;;;;15.00;8.17;;;4.20;1.00;;;;;;5090387;28;20425;-73
2023/04/12 01:46:46;;;;;;;16.27;7.57;;;4.20;1.00;;;;;;5075690;28;20699;-75
2023/04/12 01:49:12;;;;;;;13.47;6.93;;;4.20;1.00;;;;;;5073646;28;20961;-74
2023/04/12 01:51:57;;;;;;;20.03;6.77;;;4.20;1.00;;;;;;5093335;28;20892;-74
2023/04/12 01:54:33;;;;;;;10.67;7.70;;;4.20;1.00;;;;;;5089450;28;20946;-73
2023/04/12 01:57:02;;;;;;;10.23;6.40;;;4.20;1.00;;;;;;5073555;28;20547;-75
2023/04/12 01:59:33;;;;;;;21.10;6.37;;;4.20;1.00;;;;;;5056242;28;20480;-75
2023/04/12 02:02:00;;;;;;;15.50;7.80;;;4.30;1.00;;;;;;5054758;28;20434;-75
2023/04/12 02:04:26;;;;;;;11.80;6.80;;;4.30;1.00;;;;;;5056753;28;20431;-75
2023/04/12 02:06:53;;;;;;;20.00;7.10;;;4.30;1.00;;;;;;5073062;28;20447;-75
2023/04/12 02:09:18;;;;;;;19.67;6.80;;;4.30;1.00;;;;;;5055899;28;20917;-74
2023/04/12 02:11:48;;;;;;;13.03;7.33;;;4.30;1.00;;;;;;5074147;28;20456;-73
2023/04/12 02:14:14;;;;;;;9.50;7.13;;;4.30;1.00;;;;;;5073733;28;20226;-75
2023/04/12 02:16:41;;;;;;;17.80;8.20;;;4.30;1.00;;;;;;5066728;28;20438;-74
2023/04/12 02:19:07;;;;;;;21.30;6.97;;;4.30;1.00;;;;;;5073159;28;20430;-75
2023/04/12 02:21:44;;;;;;;15.50;7.57;;;4.30;1.00;;;;;;5072123;28;20916;-73
2023/04/12 02:24:11;;;;;;;12.43;7.57;;;4.30;1.00;;;;;;5073536;28;20459;-75
2023/04/12 02:26:37;;;;;;;15.23;8.53;;;4.30;1.00;;;;;;5086624;28;20923;-72
2023/04/12 02:29:06;;;;;;;15.23;8.30;;;4.30;1.00;;;;;;5078040;28;20758;-75
2023/04/12 02:31:33;;;;;;;17.83;8.90;;;4.30;1.00;;;;;;5072474;28;20401;-75
2023/04/12 02:33:59;;;;;;;10.70;8.20;;;4.30;1.00;;;;;;5076812;28;20461;-73
2023/04/12 02:36:24;;;;;;;19.80;9.90;;;4.30;1.00;;;;;;5072475;28;20399;-73
2023/04/12 02:38:50;;;;;;;23.47;9.57;;;4.30;1.00;;;;;;5072710;28;20534;-75
2023/04/12 02:41:19;;;;;;;19.67;12.33;;;4.30;1.00;;;;;;5072611;28;20613;-73
2023/04/12 02:43:46;;;;;;;16.73;8.73;;;4.30;1.00;;;;;;5074955;28;20203;-75
2023/04/12 02:46:24;;;;;;;17.90;10.00;;;4.30;1.00;;;;;;5062539;28;20531;-75
2023/04/12 02:48:50;;;;;;;10.93;8.20;;;4.30;1.00;;;;;;5064630;28;20478;-74
2023/04/12 02:51:16;;;;;;;14.00;8.80;;;4.30;1.00;;;;;;5072378;28;20746;-73
2023/04/12 02:53:42;;;;;;;17.27;8.17;;;4.30;1.00;;;;;;5083334;28;20460;-74
2023/04/12 02:56:08;;;;;;;12.20;8.90;;;4.40;1.00;;;;;;5093365;28;20242;-73
2023/04/12 02:58:35;;;;;;;13.47;9.90;;;4.40;1.00;;;;;;5080997;28;20425;-75
2023/04/12 03:01:01;;;;;;;13.80;7.40;;;4.50;1.00;;;;;;5071105;28;20934;-73
2023/04/12 03:03:30;;;;;;;12.60;8.53;;;4.40;1.00;;;;;;5073016;28;20423;-74
2023/04/12 03:05:57;;;;;;;23.80;9.53;;;4.50;1.00;;;;;;5072511;28;20166;-73
2023/04/12 03:08:23;;;;;;;14.73;9.00;;;4.40;1.00;;;;;;5072129;28;20402;-75
2023/04/12 03:10:49;;;;;;;16.87;7.70;;;4.40;1.00;;;;;;5071489;28;20980;-74
2023/04/12 03:13:15;;;;;;;10.30;6.70;;;4.40;1.00;;;;;;5071507;28;20430;-73
2023/04/12 03:15:42;;;;;;;10.60;7.40;;;4.40;1.00;;;;;;5074998;28;20417;-75
2023/04/12 03:18:08;;;;;;;16.13;6.93;;;4.40;1.00;;;;;;5072822;28;20439;-74
2023/04/12 03:20:34;;;;;;;23.20;8.13;;;4.40;1.00;;;;;;5071383;28;20977;-73
2023/04/12 03:23:00;;;;;;;12.20;7.60;;;4.40;1.00;;;;;;5072727;28;20515;-75
2023/04/12 03:25:26;;;;;;;17.07;7.43;;;4.40;1.00;;;;;;5071281;28;20269;-74
2023/04/12 03:27:51;;;;;;;15.90;7.90;;;4.40;1.00;;;;;;5072961;28;20254;-75
2023/04/12 03:30:17;;;;;;;15.40;7.73;;;4.40;1.00;;;;;;5083389;28;20475;-74
2023/04/12 03:32:43;;;;;;;9.57;6.80;;;4.40;1.00;;;;;;5072729;28;20233;-75
2023/04/12 03:35:09;;;;;;;13.67;7.43;;;4.40;1.00;;;;;;5054388;28;20271;-75
2023/04/12 03:37:35;;;;;;;14.47;7.30;;;4.40;1.00;;;;;;5072679;28;20432;-73
2023/04/12 03:40:01;;;;;;;14.07;6.60;;;4.40;1.00;;;;;;5072467;28;20190;-75
2023/04/12 03:42:27;;;;;;;14.93;7.67;;;4.40;1.00;;;;;;5071965;28;20654;-75
2023/04/12 03:44:53;;;;;;;13.47;7.60;;;4.50;1.00;;;;;;5084061;28;20905;-75
2023/04/12 03:47:20;;;;;;;12.23;6.23;;;4.50;1.00;;;;;;5072957;28;20416;-74
2023/04/12 03:49:48;;;;;;;16.27;8.00;;;4.50;1.00;;;;;;5077497;28;20420;-75
2023/04/12 03:52:14;;;;;;;7.30;6.57;;;4.50;1.00;;;;;;5075131;28;20461;-75
2023/04/12 03:54:40;;;;;;;13.13;7.70;;;4.50;1.00;;;;;;5075333;28;20460;-76
2023/04/12 03:57:06;;;;;;;16.10;5.43;;;4.50;1.00;;;;;;5075124;28;20213;-75
2023/04/12 03:59:32;;;;;;;19.60;6.87;;;4.50;1.00;;;;;;5059483;28;20273;-75
2023/04/12 04:02:01;;;;;;;8.30;5.90;;;4.50;1.00;;;;;;5075487;28;20427;-73
2023/04/12 04:04:27;;;;;;;9.53;5.83;;;4.50;1.00;;;;;;5074919;28;20442;-74
2023/04/12 04:06:53;;;;;;;7.97;5.87;;;4.50;1.00;;;;;;5074871;28;20437;-76
2023/04/12 04:09:19;;;;;;;11.40;6.10;;;4.50;1.00;;;;;;5082590;28;20440;-74
2023/04/12 04:11:45;;;;;;;6.30;5.70;;;4.50;1.00;;;;;;5095450;28;20428;-73
2023/04/12 04:14:12;;;;;;;8.47;5.00;;;4.50;1.00;;;;;;5079757;28;20956;-73
2023/04/12 04:16:37;;;;;;;12.70;5.77;;;4.50;1.00;;;;;;5058052;28;20536;-73
2023/04/12 04:19:03;;;;;;;6.93;5.53;;;4.50;1.00;;;;;;5074581;28;20933;-74
2023/04/12 04:21:29;;;;;;;7.17;5.70;;;4.50;1.00;;;;;;5073296;28;20187;-74
2023/04/12 04:23:57;;;;;;;14.90;5.60;;;4.50;1.00;;;;;;5059609;28;20240;-75
2023/04/12 04:26:31;;;;;;;7.57;5.07;;;4.50;1.00;;;;;;5075229;28;20534;-73
2023/04/12 04:29:00;;;;;;;9.37;4.60;;;4.50;1.00;;;;;;5075314;28;20474;-75
2023/04/12 04:31:33;;;;;;;7.93;5.10;;;4.60;1.00;;;;;;5074432;28;20524;-75
2023/04/12 04:34:00;;;;;;;9.73;5.70;;;4.60;1.00;;;;;;5075808;28;20809;-73
2023/04/12 04:36:26;;;;;;;5.80;4.57;;;4.60;1.00;;;;;;5074529;28;20916;-75
2023/04/12 04:38:51;;;;;;;16.13;4.80;;;4.60;1.00;;;;;;5076081;28;20443;-74
2023/04/12 04:41:21;;;;;;;10.00;4.50;;;4.60;1.00;;;;;;5085139;28;20535;-75
2023/04/12 04:43:47;;;;;;;6.83;4.80;;;4.70;1.00;;;;;;5075602;28;20243;-75
2023/04/12 04:46:13;;;;;;;6.93;4.67;;;4.70;1.00;;;;;;5075078;28;20436;-75
2023/04/12 04:48:40;;;;;;;12.20;5.60;;;4.70;1.00;;;;;;5074970;28;20439;-75
2023/04/12 04:51:06;;;;;;;10.83;5.53;;;4.70;1.00;;;;;;5084646;28;20437;-75
2023/04/12 04:53:31;;;;;;;10.47;5.50;;;4.70;1.00;;;;;;5093076;28;20432;-75
2023/04/12 04:55:58;;;;;;;10.23;4.73;;;4.70;1.00;;;;;;5077543;28;20945;-75
2023/04/12 04:58:25;;;;;;;5.37;4.07;;;4.70;1.00;;;;;;5077322;28;20172;-76
2023/04/12 05:00:54;;;;;;;7.40;4.43;;;4.70;1.00;;;;;;5066897;28;20411;-78
2023/04/12 05:03:20;;;;;;;7.17;4.77;;;4.70;1.00;;;;;;5083597;28;20449;-76
2023/04/12 05:05:50;;;;;;;8.20;4.33;;;4.70;1.00;;;;;;5079658;28;20453;-76
2023/04/12 05:08:16;;;;;;;4.93;4.40;;;4.80;1.00;;;;;;5074813;28;20258;-72
2023/04/12 05:10:43;;;;;;;7.83;4.73;;;4.80;1.00;;;;;;5072261;28;20516;-75
2023/04/12 05:13:09;;;;;;;4.80;3.60;;;4.80;1.00;;;;;;5079217;28;20191;-74
2023/04/12 05:15:35;;;;;;;5.30;4.80;;;4.90;1.00;;;;;;5079601;28;20461;-73
2023/04/12 05:18:01;;;;;;;12.60;5.03;;;4.90;1.00;;;;;;5090476;28;20178;-74
2023/04/12 05:20:26;;;;;;;5.30;4.80;;;4.90;1.00;;;;;;5073902;28;20444;-75
2023/04/12 05:22:52;;;;;;;5.50;4.97;;;5.00;1.00;;;;;;5074160;28;20809;-74
2023/04/12 05:25:19;;;;;;;14.97;4.83;;;5.00;1.00;;;;;;5073718;28;20190;-72
2023/04/12 05:27:46;;;;;;;15.53;4.40;;;4.90;1.00;;;;;;5056175;28;20171;-73
2023/04/12 05:30:12;;;;;;;4.93;4.50;;;4.90;1.00;;;;;;5080150;28;20468;-73
2023/04/12 05:32:38;;;;;;;12.90;3.70;;;5.00;1.00;;;;;;5093336;28;20451;-74
2023/04/12 05:35:04;;;;;;;5.00;4.23;;;5.00;1.00;;;;;;5083591;28;20648;-73
2023/04/12 05:37:30;;;;;;;6.20;4.20;;;5.00;1.00;;;;;;5074449;28;20212;-72
2023/04/12 05:39:56;;;;;;;3.80;3.40;;;5.00;1.00;;;;;;5072526;28;20916;-72
2023/04/12 05:42:22;;;;;;;5.43;4.70;;;5.00;1.00;;;;;;5072534;28;20245;-73
2023/04/12 05:44:49;;;;;;;11.93;3.43;;;5.10;1.00;;;;;;5073827;28;20183;-74
2023/04/12 05:47:15;;;;;;;3.73;3.43;;;5.10;1.00;;;;;;5073778;28;20170;-73
2023/04/12 05:49:40;;;;;;;10.77;4.20;;;5.10;1.00;;;;;;5087173;28;20968;-73
2023/04/12 05:52:06;;;;;;;4.80;3.77;;;5.20;1.00;;;;;;5049958;28;20205;-73
2023/04/12 05:54:32;;;;;;;6.27;4.60;;;5.20;1.00;;;;;;5090756;28;20209;-72
2023/04/12 05:56:57;;;;;;;5.27;4.23;;;5.20;1.00;;;;;;5069411;28;20298;-72
2023/04/12 05:59:23;;;;;;;5.63;4.00;;;5.30;1.00;;;;;;5090832;28;20178;-73
2023/04/12 06:01:49;;;;;;;4.20;3.83;;;5.30;1.00;;;;;;5075428;28;20196;-75
2023/04/12 06:04:14;;;;;;;3.60;3.27;;;5.30;1.00;;;;;;5076114;28;20178;-75
2023/04/12 06:06:40;;;;;;;9.20;3.30;;;5.30;1.00;;;;;;5094260;28;20258;-74
2023/04/12 06:09:06;;;;;;;3.70;3.40;;;5.40;1.00;;;;;;5092746;28;20541;-74
2023/04/12 06:11:32;;;;;;;7.43;4.33;;;5.40;1.00;;;;;;5092202;28;20174;-73
2023/04/12 06:14:01;;;;;;;9.20;3.83;;;5.40;1.00;;;;;;5094230;28;20189;-75
2023/04/12 06:16:28;;;;;;;8.13;3.50;;;5.50;1.00;;;;;;5092981;28;20430;-72
2023/04/12 06:18:53;;;;;;;10.50;4.40;;;5.70;1.00;;;;;;5080148;28;20424;-74
2023/04/12 06:21:19;;;;;;;4.00;3.70;;;5.70;1.00;;;;;;5072896;28;20960;-71
2023/04/12 06:23:45;;;;;;;6.80;3.13;;;5.80;1.00;;;;;;5073512;28;20433;-72
2023/04/12 06:26:11;;;;;;;4.50;4.10;;;5.90;1.00;;;;;;5072927;28;20563;-74
2023/04/12 06:28:36;;;;;;;4.07;3.73;;;5.90;1.00;;;;;;5073443;28;20163;-74
2023/04/12 06:31:03;;;;;;;7.17;4.13;;;6.00;1.00;;;;;;5080633;28;20226;-74
2023/04/12 06:33:29;;;;;;;3.90;3.30;;;6.00;1.00;;;;;;5093577;28;20188;-75
2023/04/12 06:35:54;;;;;;;4.37;4.00;;;6.10;1.00;;;;;;5075874;28;20477;-74
2023/04/12 06:38:20;;;;;;;14.07;4.43;;;6.10;1.00;;;;;;5093688;28;20780;-72
2023/04/12 06:40:47;;;;;;;5.10;3.90;;;6.20;1.00;;;;;;5092671;28;20669;-75
2023/04/12 06:43:17;;;;;;;6.30;2.80;;;6.30;1.00;;;;;;5092668;28;20212;-72
2023/04/12 06:45:44;;;;;;;8.70;3.07;;;6.40;99.90;;;;;;5073509;28;20508;-73
2023/04/12 06:48:10;;;;;;;5.70;3.30;;;6.40;99.90;;;;;;5073302;28;20401;-75
2023/04/12 06:50:36;;;;;;;4.23;2.87;;;6.50;99.90;;;;;;5072425;28;20415;-72
2023/04/12 06:53:02;;;;;;;3.70;3.00;;;6.60;99.90;;;;;;5073135;28;20193;-74
2023/04/12 06:55:28;;;;;;;11.33;2.90;;;6.70;99.90;;;;;;5073146;28;20205;-75
2023/04/12 06:57:54;;;;;;;3.30;3.00;;;6.70;99.90;;;;;;5073034;28;20524;-73
2023/04/12 07:00:20;;;;;;;4.53;3.50;;;6.80;99.90;;;;;;5090730;28;20927;-72
2023/04/12 07:02:46;;;;;;;3.67;3.10;;;6.80;99.90;;;;;;5092417;28;20536;-73
2023/04/12 07:05:12;;;;;;;2.87;2.67;;;6.90;99.90;;;;;;5093384;28;20789;-74
2023/04/12 07:07:38;;;;;;;4.07;2.83;;;7.00;99.90;;;;;;5093057;28;20189;-73
2023/04/12 07:10:05;;;;;;;7.27;3.77;;;7.10;99.90;;;;;;5092621;28;20398;-73
2023/04/12 07:12:31;;;;;;;3.23;3.00;;;7.20;99.90;;;;;;5088912;28;20235;-73
2023/04/12 07:14:56;;;;;;;2.90;2.70;;;7.40;99.90;;;;;;5071488;28;20535;-74
2023/04/12 07:17:25;;;;;;;3.70;2.37;;;7.40;99.90;;;;;;5071807;28;20175;-73
2023/04/12 07:19:52;;;;;;;3.67;2.80;;;7.50;99.90;;;;;;5072134;28;20400;-72
2023/04/12 07:22:18;;;;;;;3.10;2.80;;;7.50;99.90;;;;;;5075017;28;20939;-74
2023/04/12 07:24:44;;;;;;;3.07;2.77;;;7.60;99.90;;;;;;5079373;28;20432;-74
2023/04/12 07:27:10;;;;;;;3.07;2.80;;;7.70;99.90;;;;;;5081008;28;20428;-71
2023/04/12 07:29:36;;;;;;;5.73;3.00;;;7.80;99.90;;;;;;5099726;28;20530;-72
2023/04/12 07:32:03;;;;;;;3.63;2.53;;;7.90;99.90;;;;;;5082860;28;20675;-74
2023/04/12 07:34:29;;;;;;;5.10;4.70;;;8.10;99.90;;;;;;5091444;28;20464;-74
2023/04/12 07:36:55;;;;;;;8.43;3.73;;;8.20;99.90;;;;;;5078605;28;20817;-74
2023/04/12 07:39:21;;;;;;;6.10;2.77;;;8.20;99.90;;;;;;5079140;28;20181;-72
2023/04/12 07:41:48;;;;;;;5.60;2.60;;;8.40;99.90;;;;;;5079474;28;20475;-73
2023/04/12 07:44:13;;;;;;;6.37;2.77;;;8.50;99.90;;;;;;5099237;28;20188;-72
2023/04/12 07:46:40;;;;;;;2.60;2.40;;;8.70;99.90;;;;;;5082969;28;20425;-71
2023/04/12 07:49:07;;;;;;;3.77;2.60;;;8.90;99.90;;;;;;5078949;28;20183;-73
2023/04/12 07:51:33;;;;;;;2.90;2.00;;;9.00;99.90;;;;;;5077824;28;20438;-73
2023/04/12 07:53:58;;;;;;;4.30;2.87;;;9.10;98.80;;;;;;5081745;28;20814;-73
2023/04/12 07:56:24;;;;;;;10.83;2.70;;;9.30;92.20;;;;;;5080863;28;20182;-71
2023/04/12 07:58:50;;;;;;;6.70;2.43;;;9.40;92.20;;;;;;5094606;28;20218;-72
2023/04/12 08:01:16;;;;;;;5.97;2.53;;;9.40;76.10;;;;;;5096177;28;20178;-70
2023/04/12 08:03:41;;;;;;;4.87;2.57;;;9.60;78.00;;;;;;5097028;28;20653;-72
2023/04/12 08:06:07;;;;;;;3.67;2.40;;;9.80;61.60;;;;;;5080456;28;20192;-71
2023/04/12 08:08:33;;;;;;;3.90;2.53;;;9.90;32.40;;;;;;5078709;28;20532;-73
2023/04/12 08:11:01;;;;;;;5.00;2.60;;;10.00;17.40;;;;;;5078275;28;20423;-72
2023/04/12 08:13:27;;;;;;;3.17;2.20;;;10.10;12.00;;;;;;5078432;28;20343;-70
2023/04/12 08:15:53;;;;;;;4.50;2.30;;;10.30;7.60;;;;;;5096270;28;20526;-73
2023/04/12 08:18:18;;;;;;;4.30;2.53;;;10.40;1.00;;;;;;5097672;28;20177;-71
2023/04/12 08:20:44;;;;;;;5.50;2.13;;;10.60;1.00;;;;;;5078098;28;20165;-72
2023/04/12 08:23:10;;;;;;;9.70;2.47;;;10.60;1.00;;;;;;5081197;28;20209;-72
2023/04/12 08:25:37;;;;;;;2.90;2.40;;;10.60;1.00;;;;;;5078920;28;20534;-73
2023/04/12 08:28:03;;;;;;;6.30;2.47;;;10.70;1.00;;;;;;5078337;28;20443;-71
2023/04/12 08:30:30;;;;;;;9.47;2.00;;;10.70;1.00;;;;;;5077973;28;20881;-73
2023/04/12 08:32:55;;;;;;;3.23;2.87;;;10.80;1.00;;;;;;5077752;28;20474;-73
2023/04/12 08:35:22;;;;;;;4.40;2.20;;;10.90;1.00;;;;;;5075680;28;20434;-71
2023/04/12 08:37:48;;;;;;;4.87;2.40;;;10.90;1.00;;;;;;5075737;28;20654;-70
2023/04/12 08:40:14;;;;;;;8.93;2.40;;;11.00;1.00;;;;;;5074793;28;20379;-70
2023/04/12 08:42:40;;;;;;;2.73;2.53;;;11.00;1.00;;;;;;5074792;28;20983;-69
2023/04/12 08:45:10;;;;;;;3.33;1.90;;;11.00;1.00;;;;;;5075475;28;20432;-71
2023/04/12 08:47:41;;;;;;;7.03;2.57;;;11.10;1.00;;;;;;5075637;28;20419;-69
2023/04/12 08:50:09;;;;;;;4.40;2.53;;;11.20;1.00;;;;;;5074300;28;20427;-69
2023/04/12 08:52:36;;;;;;;4.43;2.50;;;11.30;1.00;;;;;;5074085;28;20506;-70
2023/04/12 08:55:06;;;;;;;3.13;2.67;;;11.40;1.00;;;;;;5075053;28;20567;-73
2023/04/12 08:57:34;;;;;;;2.93;2.57;;;11.40;1.00;;;;;;5095771;28;20420;-73
2023/04/12 09:00:01;;;;;;;2.47;2.27;;;11.40;1.00;;;;;;5095164;28;20884;-70
2023/04/12 09:02:27;;;;;;;3.30;2.27;;;11.40;1.00;;;;;;5094743;28;20415;-72
2023/04/12 09:04:54;;;;;;;7.77;2.80;;;11.40;1.00;;;;;;5095410;28;20408;-72
2023/04/12 09:07:26;;;;;;;2.50;2.27;;;11.40;1.00;;;;;;5095193;28;20898;-70
2023/04/12 09:09:53;;;;;;;6.03;2.13;;;11.40;1.00;;;;;;5093700;28;20382;-72
2023/04/12 09:12:21;;;;;;;2.90;2.23;;;11.30;1.00;;;;;;5094755;28;20416;-73
2023/04/12 09:14:47;;;;;;;3.53;2.40;;;11.40;1.00;;;;;;5095123;28;20541;-72
2023/04/12 09:17:25;;;;;;;2.30;2.00;;;11.50;1.00;;;;;;5095142;28;20484;-73
2023/04/12 09:19:52;;;;;;;4.80;2.40;;;11.50;1.00;;;;;;5094964;28;20406;-70
2023/04/12 09:22:17;;;;;;;2.53;2.03;;;11.50;1.00;;;;;;5094755;28;20427;-73
2023/04/12 09:24:49;;;;;;;2.90;2.17;;;11.40;1.00;;;;;;5080007;28;20775;-73
2023/04/12 09:27:15;;;;;;;9.73;2.40;;;11.40;1.00;;;;;;5074099;28;20166;-69
2023/04/12 09:29:41;;;;;;;3.40;2.20;;;11.40;1.00;;;;;;5074906;28;20884;-73
2023/04/12 09:32:08;;;;;;;8.63;2.27;;;11.30;1.00;;;;;;5073678;28;20439;-69
2023/04/12 09:34:35;;;;;;;4.17;2.77;;;11.30;1.00;;;;;;5077144;28;20212;-72
2023/04/12 09:37:15;;;;;;;6.17;2.43;;;11.30;1.00;;;;;;5094670;28;20422;-72
2023/04/12 09:39:41;;;;;;;3.40;2.10;;;11.30;1.00;;;;;;5093893;28;20409;-72
2023/04/12 09:42:09;;;;;;;4.40;2.20;;;11.20;1.00;;;;;;5093846;28;20461;-71
2023/04/12 09:44:35;;;;;;;5.83;2.60;;;11.20;1.00;;;;;;5093789;28;20378;-72
2023/04/12 09:47:03;;;;;;;4.77;2.20;;;11.20;1.00;;;;;;5076232;28;20440;-72
2023/04/12 09:49:40;;;;;;;4.00;2.60;;;11.20;1.00;;;;;;5094581;28;20419;-72
2023/04/12 09:52:10;;;;;;;2.20;1.93;;;11.20;1.00;;;;;;5079529;28;20490;-73
2023/04/12 09:54:49;;;;;;;3.50;2.30;;;11.20;1.00;;;;;;5056259;28;20791;-71
2023/04/12 09:57:18;;;;;;;4.80;2.70;;;11.30;1.00;;;;;;5074030;28;20412;-71
2023/04/12 09:59:47;;;;;;;6.50;2.50;;;11.30;1.00;;;;;;5074142;28;20484;-71
2023/04/12 10:02:17;;;;;;;4.70;2.50;;;11.40;1.00;;;;;;5054839;28;20421;-72
2023/04/12 10:04:44;;;;;;;4.13;3.50;;;11.40;1.00;;;;;;5074007;28;20422;-69
2023/04/12 10:07:11;;;;;;;4.60;3.63;;;11.40;1.00;;;;;;5089220;28;20852;-77
2023/04/12 10:09:39;;;;;;;7.83;2.43;;;11.40;1.00;;;;;;5094070;28;20389;-73
2023/04/12 10:12:06;;;;;;;3.13;2.27;;;11.40;1.00;;;;;;5093138;28;20420;-71
2023/04/12 10:14:31;;;;;;;2.63;2.43;;;11.40;1.00;;;;;;5094099;28;20765;-72
2023/04/12 10:17:00;;;;;;;6.87;3.00;;;11.40;1.00;;;;;;5093838;28;20411;-72
2023/04/12 10:19:27;;;;;;;9.13;2.43;;;11.40;1.00;;;;;;5092316;28;20223;-72
2023/04/12 10:21:55;;;;;;;3.33;2.53;;;11.40;1.00;;;;;;5092893;28;20422;-71
2023/04/12 10:24:22;;;;;;;4.13;2.40;;;11.40;1.00;;;;;;5093952;28;20378;-71
2023/04/12 10:26:52;;;;;;;5.47;2.13;;;11.60;1.00;;;;;;5093863;28;20407;-73
2023/04/12 10:29:30;;;;;;;3.23;2.10;;;11.80;1.00;;;;;;5093725;28;20408;-72
2023/04/12 10:32:17;;;;;;;2.27;2.10;;;12.10;1.00;;;;;;5092785;28;20793;-72
2023/04/12 10:34:43;;;;;;;3.10;2.10;;;12.30;1.00;;;;;;5092763;28;20545;-72
2023/04/12 10:37:09;;;;;;;2.23;1.73;;;12.50;1.00;;;;;;5074877;28;20784;-71
2023/04/12 10:39:42;;;;;;;2.30;2.10;;;12.50;1.00;;;;;;5093514;28;20792;-73
2023/04/12 10:42:15;;;;;;;3.60;2.03;;;12.60;1.00;;;;;;5082199;28;20429;-71
2023/04/12 10:44:41;;;;;;;5.40;1.92;;;12.60;1.00;;;;;;5072716;28;21053;-69
2023/04/12 10:47:08;;;;;;;3.50;2.20;;;12.50;1.00;;;;;;5073225;28;20257;-71
2023/04/12 10:49:34;;;;;;;3.03;2.20;;;12.60;1.00;;;;;;5079192;28;20181;-70
2023/04/12 10:52:01;;;;;;;2.83;2.20;;;12.60;1.00;;;;;;5092652;28;20446;-71
2023/04/12 10:54:30;;;;;;;3.40;2.20;;;12.50;1.00;;;;;;5092715;28;20521;-71
2023/04/12 10:56:56;;;;;;;6.13;3.03;;;12.50;1.00;;;;;;5092404;28;20392;-72
2023/04/12 10:59:23;;;;;;;5.03;2.60;;;12.50;1.00;;;;;;5093215;28;20538;-71
2023/04/12 11:02:21;;;;;;;2.40;2.30;;;12.40;1.00;;;;;;5074232;28;20197;-71
2023/04/12 11:05:10;;;;;;;1.73;1.63;;;12.40;1.00;;;;;;5038409;28;20538;-71
2023/04/12 11:07:43;;;;;;;3.40;2.57;;;12.30;1.00;;;;;;5073094;28;20482;-71
2023/04/12 11:10:14;;;;;;;5.30;2.53;;;12.10;1.00;;;;;;5079429;28;20432;-70
2023/04/12 11:12:41;;;;;;;5.97;2.33;;;12.00;1.00;;;;;;5093101;28;20394;-71
2023/04/12 11:15:12;;;;;;;3.97;2.20;;;11.90;1.00;;;;;;5093054;28;20455;-71
2023/04/12 11:17:38;;;;;;;4.30;2.20;;;11.90;1.00;;;;;;5093175;28;20395;-71
2023/04/12 11:20:12;;;;;;;3.87;2.10;;;11.90;1.00;;;;;;5092525;28;20381;-71
2023/04/12 11:22:39;;;;;;;3.80;1.90;;;12.00;1.00;;;;;;5092979;28;20184;-69
2023/04/12 11:25:06;;;;;;;2.90;2.40;;;12.10;1.00;;;;;;5081933;28;20424;-71
2023/04/12 11:27:33;;;;;;;3.97;2.10;;;12.30;1.00;;;;;;5072662;28;20382;-71
2023/04/12 11:30:00;;;;;;;2.93;2.47;;;12.40;1.00;;;;;;5072053;28;20397;-70
2023/04/12 11:32:28;;;;;;;2.20;2.00;;;12.40;1.00;;;;;;5054244;28;20498;-71
2023/04/12 11:34:55;;;;;;;4.57;2.00;;;12.50;1.00;;;;;;5072675;28;20962;-72
2023/04/12 11:37:22;;;;;;;3.33;2.13;;;12.30;1.00;;;;;;5073646;28;20397;-70
2023/04/12 11:39:51;;;;;;;3.43;2.13;;;12.10;1.00;;;;;;5074649;28;20829;-71
2023/04/12 11:42:23;;;;;;;3.67;1.90;;;12.00;1.00;;;;;;5092009;28;20417;-69
2023/04/12 11:44:50;;;;;;;3.10;1.80;;;11.80;1.00;;;;;;5092661;28;20888;-70
2023/04/12 11:47:18;;;;;;;2.93;2.10;;;11.60;1.00;;;;;;5092406;28;20887;-71
2023/04/12 11:49:48;;;;;;;2.60;2.00;;;11.60;1.00;;;;;;5092755;28;20405;-69
2023/04/12 11:52:16;;;;;;;2.37;2.20;;;11.50;1.00;;;;;;5090978;28;20460;-70
2023/04/12 11:54:46;;;;;;;3.60;2.30;;;11.50;1.00;;;;;;5092662;28;20490;-72
2023/04/12 11:57:14;;;;;;;4.80;2.30;;;11.40;1.00;;;;;;5092752;28;20790;-70
2023/04/12 11:59:42;;;;;;;4.50;2.50;;;11.40;1.00;;;;;;5092776;28;20776;-70
2023/04/12 12:02:09;;;;;;;3.60;2.60;;;11.40;1.00;;;;;;5090565;28;20395;-71
2023/04/12 12:04:35;;;;;;;2.90;2.13;;;11.40;1.00;;;;;;5092278;28;20400;-70
2023/04/12 12:07:01;;;;;;;2.63;2.00;;;11.40;1.00;;;;;;5091246;28;20425;-71
2023/04/12 12:09:27;;;;;;;7.40;2.80;;;11.40;1.00;;;;;;5095555;28;20166;-71
2023/04/12 12:11:54;;;;;;;12.80;2.90;;;11.30;1.00;;;;;;5095509;28;20440;-71
2023/04/12 12:14:21;;;;;;;5.90;2.67;;;11.40;1.00;;;;;;5078160;28;20414;-71
2023/04/12 12:16:55;;;;;;;3.87;2.20;;;11.40;1.00;;;;;;5096347;28;20395;-72
2023/04/12 12:19:31;;;;;;;4.13;2.57;;;11.40;1.00;;;;;;5096282;28;20391;-71
2023/04/12 12:22:13;;;;;;;2.30;2.13;;;11.30;1.00;;;;;;5088928;28;20441;-70
2023/04/12 12:24:55;;;;;;;3.93;3.00;;;11.40;1.00;;;;;;5075769;28;20502;-71
2023/04/12 12:27:37;;;;;;;3.97;2.47;;;11.30;1.00;;;;;;5075672;28;20371;-72
2023/04/12 12:30:08;;;;;;;3.67;2.63;;;11.30;1.00;;;;;;5075338;28;20413;-71
2023/04/12 12:32:36;;;;;;;7.90;2.40;;;11.10;1.00;;;;;;5075518;28;20402;-71
2023/04/12 12:35:08;;;;;;;2.43;2.23;;;11.00;1.00;;;;;;5083648;28;20462;-70
2023/04/12 12:37:34;;;;;;;4.07;2.40;;;10.80;1.00;;;;;;5095223;28;20900;-69
2023/04/12 12:40:10;;;;;;;2.63;2.40;;;10.70;1.00;;;;;;5094972;28;20378;-69
2023/04/12 12:42:36;;;;;;;3.27;2.97;;;10.60;1.00;;;;;;5095742;28;20914;-71
2023/04/12 12:45:03;;;;;;;6.70;3.43;;;10.40;1.00;;;;;;5095867;28;20413;-71
2023/04/12 12:47:32;;;;;;;4.20;2.33;;;10.30;1.00;;;;;;5095865;28;20377;-69
2023/04/12 12:49:58;;;;;;;3.03;2.80;;;10.20;1.00;;;;;;5094640;28;20438;-69
2023/04/12 12:52:24;;;;;;;4.97;3.00;;;10.10;1.00;;;;;;5094984;28;20400;-69
2023/04/12 12:54:49;;;;;;;4.17;3.07;;;10.00;1.00;;;;;;5095655;28;20201;-70
2023/04/12 12:57:15;;;;;;;8.33;3.83;;;9.90;1.00;;;;;;5095786;28;20399;-70
2023/04/12 12:59:41;;;;;;;6.63;4.20;;;9.80;18.40;;;;;;5094970;28;20180;-69
2023/04/12 13:02:06;;;;;;;8.70;3.30;;;9.70;48.70;;;;;;5094572;28;20185;-70